sensor_id;sensor_type;location;lat;lon;timestamp;temperature;humidity
37408;DHT22;24866;50.248;8.252;2023-10-13T00:01:14;17.00;99.90
37408;DHT22;24866;50.248;8.252;2023-10-13T00:03:44;17.00;99.90
37408;DHT22;24866;50.248;8.252;2023-10-13T00:06:14;17.00;99.90
37408;DHT22;24866;50.248;8.252;2023-10-13T00:08:44;17.00;99.90
37408;DHT22;24866;50.248;8.252;2023-10-13T00:11:15;16.90;99.90
37408;DHT22;24866;50.248;8.252;2023-10-13T00:13:46;16.90;99.90
37408;DHT22;24866;50.248;8.252;2023-10-13T00:16:21;16.90;99.90
37408;DHT22;24866;50.248;8.252;2023-10-13T00:18:53;17.00;99.90
37408;DHT22;24866;50.248;8.252;2023-10-13T00:21:25;17.00;99.90
37408;DHT22;24866;50.248;8.252;2023-10-13T00:24:00;17.00;99.90
37408;DHT22;24866;50.248;8.252;2023-10-13T00:26:34;17.00;99.90
37408;DHT22;24866;50.248;8.252;2023-10-13T00:29:05;17.10;99.90
37408;DHT22;24866;50.248;8.252;2023-10-13T00:31:45;17.10;99.90
37408;DHT22;24866;50.248;8.252;2023-10-13T00:34:16;17.10;99.90
37408;DHT22;24866;50.248;8.252;2023-10-13T00:36:53;17.00;99.90
37408;DHT22;24866;50.248;8.252;2023-10-13T00:39:38;17.00;99.90
37408;DHT22;24866;50.248;8.252;2023-10-13T00:42:14;17.10;99.90
37408;DHT22;24866;50.248;8.252;2023-10-13T00:44:54;17.10;99.90
37408;DHT22;24866;50.248;8.252;2023-10-13T00:47:24;17.00;99.90
37408;DHT22;24866;50.248;8.252;2023-10-13T00:50:07;17.00;99.90
37408;DHT22;24866;50.248;8.252;2023-10-13T00:52:40;17.00;99.90
37408;DHT22;24866;50.248;8.252;2023-10-13T00:55:10;17.00;99.90
37408;DHT22;24866;50.248;8.252;2023-10-13T00:57:41;17.00;99.90
37408;DHT22;24866;50.248;8.252;2023-10-13T01:00:10;17.00;99.90
37408;DHT22;24866;50.248;8.252;2023-10-13T01:02:48;17.00;99.90
37408;DHT22;24866;50.248;8.252;2023-10-13T01:05:25;16.90;99.90
37408;DHT22;24866;50.248;8.252;2023-10-13T01:07:54;17.00;99.90
37408;DHT22;24866;50.248;8.252;2023-10-13T01:10:25;17.00;99.90
37408;DHT22;24866;50.248;8.252;2023-10-13T01:12:56;17.00;99.90
37408;DHT22;24866;50.248;8.252;2023-10-13T01:15:27;17.00;99.90
37408;DHT22;24866;50.248;8.252;2023-10-13T01:18:07;16.90;99.90
37408;DHT22;24866;50.248;8.252;2023-10-13T01:20:40;16.90;99.90
37408;DHT22;24866;50.248;8.252;2023-10-13T01:23:15;16.90;99.90
37408;DHT22;24866;50.248;8.252;2023-10-13T01:25:47;17.00;99.90
37408;DHT22;24866;50.248;8.252;2023-10-13T01:28:17;17.00;99.90
37408;DHT22;24866;50.248;8.252;2023-10-13T01:30:46;17.00;99.90
37408;DHT22;24866;50.248;8.252;2023-10-13T01:33:19;17.00;99.90
37408;DHT22;24866;50.248;8.252;2023-10-13T01:35:55;17.10;99.90
37408;DHT22;24866;50.248;8.252;2023-10-13T01:38:28;16.90;99.90
37408;DHT22;24866;50.248;8.252;2023-10-13T01:41:05;16.90;99.90
37408;DHT22;24866;50.248;8.252;2023-10-13T01:43:34;17.00;99.90
37408;DHT22;24866;50.248;8.252;2023-10-13T01:46:04;16.90;99.90
37408;DHT22;24866;50.248;8.252;2023-10-13T01:48:34;17.00;99.90
37408;DHT22;24866;50.248;8.252;2023-10-13T01:51:07;16.90;99.90
37408;DHT22;24866;50.248;8.252;2023-10-13T01:53:40;16.90;99.90
37408;DHT22;24866;50.248;8.252;2023-10-13T01:56:09;16.90;99.90
37408;DHT22;24866;50.248;8.252;2023-10-13T01:58:40;16.90;99.90
37408;DHT22;24866;50.248;8.252;2023-10-13T02:01:10;16.90;99.90
37408;DHT22;24866;50.248;8.252;2023-10-13T02:03:42;16.90;99.90
37408;DHT22;24866;50.248;8.252;2023-10-13T02:06:15;16.90;99.90
37408;DHT22;24866;50.248;8.252;2023-10-13T02:08:53;16.90;99.90
37408;DHT22;24866;50.248;8.252;2023-10-13T02:11:26;16.90;99.90
37408;DHT22;24866;50.248;8.252;2023-10-13T02:13:56;16.90;99.90
37408;DHT22;24866;50.248;8.252;2023-10-13T02:16:26;17.00;99.90
37408;DHT22;24866;50.248;8.252;2023-10-13T02:18:56;17.00;99.90
37408;DHT22;24866;50.248;8.252;2023-10-13T02:21:26;17.00;99.90
37408;DHT22;24866;50.248;8.252;2023-10-13T02:24:01;17.10;99.90
37408;DHT22;24866;50.248;8.252;2023-10-13T02:26:32;17.10;99.90
37408;DHT22;24866;50.248;8.252;2023-10-13T02:29:07;17.00;99.90
37408;DHT22;24866;50.248;8.252;2023-10-13T02:31:38;16.90;99.90
37408;DHT22;24866;50.248;8.252;2023-10-13T02:34:08;16.90;99.90
37408;DHT22;24866;50.248;8.252;2023-10-13T02:36:39;16.90;99.90
37408;DHT22;24866;50.248;8.252;2023-10-13T02:39:17;16.90;99.90
37408;DHT22;24866;50.248;8.252;2023-10-13T02:41:46;16.90;99.90
37408;DHT22;24866;50.248;8.252;2023-10-13T02:44:17;16.90;99.90
37408;DHT22;24866;50.248;8.252;2023-10-13T02:46:55;17.00;99.90
37408;DHT22;24866;50.248;8.252;2023-10-13T02:49:25;17.00;99.90
37408;DHT22;24866;50.248;8.252;2023-10-13T02:51:55;17.00;99.90
37408;DHT22;24866;50.248;8.252;2023-10-13T02:54:28;17.00;99.90
37408;DHT22;24866;50.248;8.252;2023-10-13T02:56:59;17.00;99.90
37408;DHT22;24866;50.248;8.252;2023-10-13T02:59:32;16.90;99.90
37408;DHT22;24866;50.248;8.252;2023-10-13T03:02:08;16.90;99.90
37408;DHT22;24866;50.248;8.252;2023-10-13T03:04:49;17.00;99.90
37408;DHT22;24866;50.248;8.252;2023-10-13T03:07:18;17.00;99.90
37408;DHT22;24866;50.248;8.252;2023-10-13T03:09:53;17.00;99.90
37408;DHT22;24866;50.248;8.252;2023-10-13T03:12:26;17.00;99.90
37408;DHT22;24866;50.248;8.252;2023-10-13T03:15:02;17.00;99.90
37408;DHT22;24866;50.248;8.252;2023-10-13T03:17:43;17.00;99.90
37408;DHT22;24866;50.248;8.252;2023-10-13T03:20:14;17.00;99.90
37408;DHT22;24866;50.248;8.252;2023-10-13T03:22:47;17.10;99.90
37408;DHT22;24866;50.248;8.252;2023-10-13T03:25:22;17.00;99.90
37408;DHT22;24866;50.248;8.252;2023-10-13T03:27:52;17.00;99.90
37408;DHT22;24866;50.248;8.252;2023-10-13T03:30:33;17.10;99.90
37408;DHT22;24866;50.248;8.252;2023-10-13T03:33:07;17.10;99.90
37408;DHT22;24866;50.248;8.252;2023-10-13T03:35:40;17.10;99.90
37408;DHT22;24866;50.248;8.252;2023-10-13T03:38:12;17.10;99.90
37408;DHT22;24866;50.248;8.252;2023-10-13T03:40:51;17.10;99.90
37408;DHT22;24866;50.248;8.252;2023-10-13T03:43:35;17.10;99.90
37408;DHT22;24866;50.248;8.252;2023-10-13T03:46:13;17.10;99.90
37408;DHT22;24866;50.248;8.252;2023-10-13T03:48:43;17.10;99.90
37408;DHT22;24866;50.248;8.252;2023-10-13T03:51:22;17.20;99.90
37408;DHT22;24866;50.248;8.252;2023-10-13T03:53:59;17.20;99.90
37408;DHT22;24866;50.248;8.252;2023-10-13T03:56:37;17.20;99.90
37408;DHT22;24866;50.248;8.252;2023-10-13T03:59:10;17.20;99.90
37408;DHT22;24866;50.248;8.252;2023-10-13T04:01:47;17.30;99.90
37408;DHT22;24866;50.248;8.252;2023-10-13T04:04:27;17.30;99.90
37408;DHT22;24866;50.248;8.252;2023-10-13T04:07:05;17.20;99.90
37408;DHT22;24866;50.248;8.252;2023-10-13T04:09:49;17.20;99.90
37408;DHT22;24866;50.248;8.252;2023-10-13T04:12:40;17.30;99.90
37408;DHT22;24866;50.248;8.252;2023-10-13T04:15:27;17.30;99.90
37408;DHT22;24866;50.248;8.252;2023-10-13T04:18:05;17.20;99.90
37408;DHT22;24866;50.248;8.252;2023-10-13T04:20:59;17.30;99.90
37408;DHT22;24866;50.248;8.252;2023-10-13T04:23:47;17.30;99.90
37408;DHT22;24866;50.248;8.252;2023-10-13T04:26:52;17.30;99.90
37408;DHT22;24866;50.248;8.252;2023-10-13T04:29:41;17.30;99.90
37408;DHT22;24866;50.248;8.252;2023-10-13T04:32:38;17.30;99.90
37408;DHT22;24866;50.248;8.252;2023-10-13T04:35:10;17.30;99.90
37408;DHT22;24866;50.248;8.252;2023-10-13T04:37:46;17.30;99.90
37408;DHT22;24866;50.248;8.252;2023-10-13T04:40:19;17.30;99.90
37408;DHT22;24866;50.248;8.252;2023-10-13T04:42:53;17.30;99.90
37408;DHT22;24866;50.248;8.252;2023-10-13T04:45:27;17.30;99.90
37408;DHT22;24866;50.248;8.252;2023-10-13T04:48:18;17.30;99.90
37408;DHT22;24866;50.248;8.252;2023-10-13T04:51:01;17.30;99.90
37408;DHT22;24866;50.248;8.252;2023-10-13T04:53:45;17.30;99.90
37408;DHT22;24866;50.248;8.252;2023-10-13T04:56:34;17.30;99.90
37408;DHT22;24866;50.248;8.252;2023-10-13T04:59:21;17.30;99.90
37408;DHT22;24866;50.248;8.252;2023-10-13T05:02:28;17.40;99.90
37408;DHT22;24866;50.248;8.252;2023-10-13T05:05:15;17.40;99.90
37408;DHT22;24866;50.248;8.252;2023-10-13T05:08:11;17.50;99.90
37408;DHT22;24866;50.248;8.252;2023-10-13T05:11:03;17.50;99.90
37408;DHT22;24866;50.248;8.252;2023-10-13T05:13:51;17.40;99.90
37408;DHT22;24866;50.248;8.252;2023-10-13T05:16:38;17.40;99.90
37408;DHT22;24866;50.248;8.252;2023-10-13T05:19:27;17.50;99.90
37408;DHT22;24866;50.248;8.252;2023-10-13T05:22:14;17.40;99.90
37408;DHT22;24866;50.248;8.252;2023-10-13T05:25:01;17.50;99.90
37408;DHT22;24866;50.248;8.252;2023-10-13T05:27:48;17.50;99.90
37408;DHT22;24866;50.248;8.252;2023-10-13T05:30:36;17.40;99.90
37408;DHT22;24866;50.248;8.252;2023-10-13T05:33:23;17.30;99.90
37408;DHT22;24866;50.248;8.252;2023-10-13T05:36:12;17.30;99.90
37408;DHT22;24866;50.248;8.252;2023-10-13T05:38:59;17.30;99.90
37408;DHT22;24866;50.248;8.252;2023-10-13T05:41:46;17.20;99.90
37408;DHT22;24866;50.248;8.252;2023-10-13T05:44:33;17.20;99.90
37408;DHT22;24866;50.248;8.252;2023-10-13T05:47:05;17.10;99.90
37408;DHT22;24866;50.248;8.252;2023-10-13T05:49:53;17.10;99.90
37408;DHT22;24866;50.248;8.252;2023-10-13T05:52:34;17.10;99.90
37408;DHT22;24866;50.248;8.252;2023-10-13T05:55:25;17.10;99.90
37408;DHT22;24866;50.248;8.252;2023-10-13T05:58:13;17.10;99.90
37408;DHT22;24866;50.248;8.252;2023-10-13T06:01:00;17.00;99.90
37408;DHT22;24866;50.248;8.252;2023-10-13T06:03:48;17.10;99.90
37408;DHT22;24866;50.248;8.252;2023-10-13T06:06:35;17.10;99.90
37408;DHT22;24866;50.248;8.252;2023-10-13T06:09:24;17.10;99.90
37408;DHT22;24866;50.248;8.252;2023-10-13T06:12:11;17.10;99.90
37408;DHT22;24866;50.248;8.252;2023-10-13T06:14:59;17.10;99.90
37408;DHT22;24866;50.248;8.252;2023-10-13T06:17:46;17.10;99.90
37408;DHT22;24866;50.248;8.252;2023-10-13T06:20:38;17.10;99.90
37408;DHT22;24866;50.248;8.252;2023-10-13T06:23:26;17.10;99.90
37408;DHT22;24866;50.248;8.252;2023-10-13T06:26:14;17.10;99.90
37408;DHT22;24866;50.248;8.252;2023-10-13T06:29:02;17.10;99.90
37408;DHT22;24866;50.248;8.252;2023-10-13T06:31:36;17.10;99.90
37408;DHT22;24866;50.248;8.252;2023-10-13T06:34:06;17.20;99.90
37408;DHT22;24866;50.248;8.252;2023-10-13T06:36:35;17.20;99.90
37408;DHT22;24866;50.248;8.252;2023-10-13T06:39:08;17.20;99.90
37408;DHT22;24866;50.248;8.252;2023-10-13T06:42:05;17.20;99.90
37408;DHT22;24866;50.248;8.252;2023-10-13T06:44:35;17.20;99.90
37408;DHT22;24866;50.248;8.252;2023-10-13T06:47:08;17.20;99.90
37408;DHT22;24866;50.248;8.252;2023-10-13T06:49:39;17.20;99.90
37408;DHT22;24866;50.248;8.252;2023-10-13T06:52:11;17.10;99.90
37408;DHT22;24866;50.248;8.252;2023-10-13T06:54:41;17.10;99.90
37408;DHT22;24866;50.248;8.252;2023-10-13T06:57:13;17.10;99.90
37408;DHT22;24866;50.248;8.252;2023-10-13T06:59:49;17.20;99.90
37408;DHT22;24866;50.248;8.252;2023-10-13T07:02:21;17.10;99.90
37408;DHT22;24866;50.248;8.252;2023-10-13T07:04:51;17.10;99.90
37408;DHT22;24866;50.248;8.252;2023-10-13T07:07:25;17.10;99.90
37408;DHT22;24866;50.248;8.252;2023-10-13T07:09:55;17.20;99.90
37408;DHT22;24866;50.248;8.252;2023-10-13T07:12:28;17.20;99.90
37408;DHT22;24866;50.248;8.252;2023-10-13T07:15:01;17.20;99.90
37408;DHT22;24866;50.248;8.252;2023-10-13T07:17:33;17.20;99.90
37408;DHT22;24866;50.248;8.252;2023-10-13T07:20:07;17.20;99.90
37408;DHT22;24866;50.248;8.252;2023-10-13T07:22:45;17.20;99.90
37408;DHT22;24866;50.248;8.252;2023-10-13T07:25:26;17.20;99.90
37408;DHT22;24866;50.248;8.252;2023-10-13T07:28:02;17.20;99.90
37408;DHT22;24866;50.248;8.252;2023-10-13T07:30:33;17.20;99.90
37408;DHT22;24866;50.248;8.252;2023-10-13T07:33:09;17.30;99.90
37408;DHT22;24866;50.248;8.252;2023-10-13T07:35:41;17.30;99.90
37408;DHT22;24866;50.248;8.252;2023-10-13T07:38:12;17.30;99.90
37408;DHT22;24866;50.248;8.252;2023-10-13T07:40:42;17.30;99.90
37408;DHT22;24866;50.248;8.252;2023-10-13T07:43:20;17.40;99.90
37408;DHT22;24866;50.248;8.252;2023-10-13T07:45:51;17.50;99.90
37408;DHT22;24866;50.248;8.252;2023-10-13T07:48:26;17.50;99.90
37408;DHT22;24866;50.248;8.252;2023-10-13T07:51:02;17.60;99.90
37408;DHT22;24866;50.248;8.252;2023-10-13T07:53:32;17.60;99.90
37408;DHT22;24866;50.248;8.252;2023-10-13T07:56:04;17.60;99.90
37408;DHT22;24866;50.248;8.252;2023-10-13T07:58:38;17.60;99.90
37408;DHT22;24866;50.248;8.252;2023-10-13T08:01:16;17.60;99.90
37408;DHT22;24866;50.248;8.252;2023-10-13T08:03:47;17.60;99.90
37408;DHT22;24866;50.248;8.252;2023-10-13T08:06:33;17.60;99.90
37408;DHT22;24866;50.248;8.252;2023-10-13T08:09:05;17.70;99.90
37408;DHT22;24866;50.248;8.252;2023-10-13T08:11:37;17.60;99.90
37408;DHT22;24866;50.248;8.252;2023-10-13T08:14:09;17.60;99.90
37408;DHT22;24866;50.248;8.252;2023-10-13T08:16:50;17.70;99.90
37408;DHT22;24866;50.248;8.252;2023-10-13T08:19:24;17.70;99.90
37408;DHT22;24866;50.248;8.252;2023-10-13T08:21:58;17.80;99.90
37408;DHT22;24866;50.248;8.252;2023-10-13T08:24:50;17.80;99.90
37408;DHT22;24866;50.248;8.252;2023-10-13T08:27:33;17.90;99.90
37408;DHT22;24866;50.248;8.252;2023-10-13T08:30:08;17.90;99.90
37408;DHT22;24866;50.248;8.252;2023-10-13T08:32:57;17.90;99.90
37408;DHT22;24866;50.248;8.252;2023-10-13T08:35:28;17.90;99.90
37408;DHT22;24866;50.248;8.252;2023-10-13T08:38:04;17.90;99.90
37408;DHT22;24866;50.248;8.252;2023-10-13T08:40:35;18.00;99.90
37408;DHT22;24866;50.248;8.252;2023-10-13T08:43:46;18.10;99.90
37408;DHT22;24866;50.248;8.252;2023-10-13T08:46:21;18.00;99.90
37408;DHT22;24866;50.248;8.252;2023-10-13T08:48:59;18.10;99.90
37408;DHT22;24866;50.248;8.252;2023-10-13T08:51:38;18.10;99.90
37408;DHT22;24866;50.248;8.252;2023-10-13T08:54:17;18.10;99.90
37408;DHT22;24866;50.248;8.252;2023-10-13T08:57:02;18.20;99.90
37408;DHT22;24866;50.248;8.252;2023-10-13T08:59:50;18.30;99.90
37408;DHT22;24866;50.248;8.252;2023-10-13T09:02:25;18.40;99.90
37408;DHT22;24866;50.248;8.252;2023-10-13T09:05:09;18.50;99.90
37408;DHT22;24866;50.248;8.252;2023-10-13T09:07:59;18.60;99.90
37408;DHT22;24866;50.248;8.252;2023-10-13T09:10:38;18.70;99.90
37408;DHT22;24866;50.248;8.252;2023-10-13T09:13:34;18.80;99.90
37408;DHT22;24866;50.248;8.252;2023-10-13T09:16:12;18.80;99.90
37408;DHT22;24866;50.248;8.252;2023-10-13T09:18:52;18.80;99.90
37408;DHT22;24866;50.248;8.252;2023-10-13T09:21:21;18.90;99.90
37408;DHT22;24866;50.248;8.252;2023-10-13T09:24:12;19.00;99.90
37408;DHT22;24866;50.248;8.252;2023-10-13T09:26:50;19.10;99.90
37408;DHT22;24866;50.248;8.252;2023-10-13T09:29:24;19.00;99.90
37408;DHT22;24866;50.248;8.252;2023-10-13T09:32:01;19.00;99.90
37408;DHT22;24866;50.248;8.252;2023-10-13T09:34:33;19.00;99.90
37408;DHT22;24866;50.248;8.252;2023-10-13T09:37:05;19.10;99.90
37408;DHT22;24866;50.248;8.252;2023-10-13T09:39:38;19.10;99.90
37408;DHT22;24866;50.248;8.252;2023-10-13T09:42:13;19.10;99.90
37408;DHT22;24866;50.248;8.252;2023-10-13T09:44:45;19.10;99.90
37408;DHT22;24866;50.248;8.252;2023-10-13T09:47:22;19.20;99.90
37408;DHT22;24866;50.248;8.252;2023-10-13T09:50:01;19.10;99.90
37408;DHT22;24866;50.248;8.252;2023-10-13T09:52:34;19.20;99.90
37408;DHT22;24866;50.248;8.252;2023-10-13T09:55:19;19.20;99.90
37408;DHT22;24866;50.248;8.252;2023-10-13T09:57:57;19.30;99.90
37408;DHT22;24866;50.248;8.252;2023-10-13T10:00:30;19.40;99.90
37408;DHT22;24866;50.248;8.252;2023-10-13T10:03:26;19.50;99.90
37408;DHT22;24866;50.248;8.252;2023-10-13T10:06:21;19.90;99.90
37408;DHT22;24866;50.248;8.252;2023-10-13T10:09:05;20.10;99.90
37408;DHT22;24866;50.248;8.252;2023-10-13T10:12:12;20.20;99.90
37408;DHT22;24866;50.248;8.252;2023-10-13T10:15:09;20.40;99.90
37408;DHT22;24866;50.248;8.252;2023-10-13T10:17:43;20.50;99.90
37408;DHT22;24866;50.248;8.252;2023-10-13T10:20:13;20.40;99.90
37408;DHT22;24866;50.248;8.252;2023-10-13T10:22:57;20.50;99.90
37408;DHT22;24866;50.248;8.252;2023-10-13T10:25:29;20.30;99.90
37408;DHT22;24866;50.248;8.252;2023-10-13T10:28:04;20.40;99.90
37408;DHT22;24866;50.248;8.252;2023-10-13T10:30:36;20.30;99.90
37408;DHT22;24866;50.248;8.252;2023-10-13T10:33:07;20.20;99.90
37408;DHT22;24866;50.248;8.252;2023-10-13T10:35:41;20.20;99.90
37408;DHT22;24866;50.248;8.252;2023-10-13T10:38:14;20.20;99.90
37408;DHT22;24866;50.248;8.252;2023-10-13T10:40:53;20.10;99.90
37408;DHT22;24866;50.248;8.252;2023-10-13T10:43:27;20.20;99.90
37408;DHT22;24866;50.248;8.252;2023-10-13T10:46:11;20.20;99.90
37408;DHT22;24866;50.248;8.252;2023-10-13T10:48:42;20.20;99.90
37408;DHT22;24866;50.248;8.252;2023-10-13T10:51:13;20.30;99.90
37408;DHT22;24866;50.248;8.252;2023-10-13T10:53:52;20.40;99.90
37408;DHT22;24866;50.248;8.252;2023-10-13T10:56:23;20.40;99.90
37408;DHT22;24866;50.248;8.252;2023-10-13T10:58:55;20.50;99.90
37408;DHT22;24866;50.248;8.252;2023-10-13T11:01:26;20.70;99.90
37408;DHT22;24866;50.248;8.252;2023-10-13T11:04:03;20.80;99.90
37408;DHT22;24866;50.248;8.252;2023-10-13T11:06:45;20.80;99.90
37408;DHT22;24866;50.248;8.252;2023-10-13T11:09:24;20.80;99.90
37408;DHT22;24866;50.248;8.252;2023-10-13T11:12:09;20.80;99.90
37408;DHT22;24866;50.248;8.252;2023-10-13T11:14:44;20.80;99.90
37408;DHT22;24866;50.248;8.252;2023-10-13T11:17:21;20.80;99.90
37408;DHT22;24866;50.248;8.252;2023-10-13T11:20:08;20.80;99.90
37408;DHT22;24866;50.248;8.252;2023-10-13T11:22:46;20.90;99.90
37408;DHT22;24866;50.248;8.252;2023-10-13T11:25:22;20.90;99.90
37408;DHT22;24866;50.248;8.252;2023-10-13T11:28:10;21.00;99.90
37408;DHT22;24866;50.248;8.252;2023-10-13T11:30:46;21.20;99.90
37408;DHT22;24866;50.248;8.252;2023-10-13T11:33:19;21.20;99.90
37408;DHT22;24866;50.248;8.252;2023-10-13T11:35:52;21.20;99.90
37408;DHT22;24866;50.248;8.252;2023-10-13T11:38:26;21.30;99.90
37408;DHT22;24866;50.248;8.252;2023-10-13T11:40:58;21.30;99.90
37408;DHT22;24866;50.248;8.252;2023-10-13T11:43:52;21.50;99.90
37408;DHT22;24866;50.248;8.252;2023-10-13T11:46:34;21.70;99.90
37408;DHT22;24866;50.248;8.252;2023-10-13T11:49:22;21.70;99.90
37408;DHT22;24866;50.248;8.252;2023-10-13T11:52:03;21.70;99.90
37408;DHT22;24866;50.248;8.252;2023-10-13T11:54:53;21.70;99.90
37408;DHT22;24866;50.248;8.252;2023-10-13T11:57:24;21.70;99.90
37408;DHT22;24866;50.248;8.252;2023-10-13T11:59:54;21.70;99.90
37408;DHT22;24866;50.248;8.252;2023-10-13T12:02:47;21.70;99.90
37408;DHT22;24866;50.248;8.252;2023-10-13T12:05:34;21.70;99.90
37408;DHT22;24866;50.248;8.252;2023-10-13T12:08:31;21.70;99.90
37408;DHT22;24866;50.248;8.252;2023-10-13T12:11:07;21.70;99.90
37408;DHT22;24866;50.248;8.252;2023-10-13T12:13:52;21.70;99.90
37408;DHT22;24866;50.248;8.252;2023-10-13T12:16:22;21.70;99.90
37408;DHT22;24866;50.248;8.252;2023-10-13T12:19:03;21.70;99.90
37408;DHT22;24866;50.248;8.252;2023-10-13T12:21:38;21.60;99.90
37408;DHT22;24866;50.248;8.252;2023-10-13T12:24:09;21.70;99.90
37408;DHT22;24866;50.248;8.252;2023-10-13T12:26:50;21.70;99.90
37408;DHT22;24866;50.248;8.252;2023-10-13T12:29:25;21.60;99.90
37408;DHT22;24866;50.248;8.252;2023-10-13T12:31:58;21.70;99.90
37408;DHT22;24866;50.248;8.252;2023-10-13T12:34:36;21.70;99.90
37408;DHT22;24866;50.248;8.252;2023-10-13T12:37:20;21.60;99.90
37408;DHT22;24866;50.248;8.252;2023-10-13T12:40:08;21.60;99.90
37408;DHT22;24866;50.248;8.252;2023-10-13T12:42:56;21.70;99.90
37408;DHT22;24866;50.248;8.252;2023-10-13T12:45:45;21.60;99.90
37408;DHT22;24866;50.248;8.252;2023-10-13T12:48:35;21.60;99.90
37408;DHT22;24866;50.248;8.252;2023-10-13T12:51:22;21.60;99.90
37408;DHT22;24866;50.248;8.252;2023-10-13T12:54:07;21.60;99.90
37408;DHT22;24866;50.248;8.252;2023-10-13T12:56:43;21.60;99.90
37408;DHT22;24866;50.248;8.252;2023-10-13T12:59:13;21.70;99.90
37408;DHT22;24866;50.248;8.252;2023-10-13T13:01:45;21.70;99.90
37408;DHT22;24866;50.248;8.252;2023-10-13T13:04:15;21.80;99.90
37408;DHT22;24866;50.248;8.252;2023-10-13T13:06:49;22.00;99.90
37408;DHT22;24866;50.248;8.252;2023-10-13T13:09:19;22.10;99.90
37408;DHT22;24866;50.248;8.252;2023-10-13T13:11:54;22.10;99.90
37408;DHT22;24866;50.248;8.252;2023-10-13T13:14:26;22.10;99.90
37408;DHT22;24866;50.248;8.252;2023-10-13T13:16:58;22.10;99.90
37408;DHT22;24866;50.248;8.252;2023-10-13T13:19:33;22.20;99.90
37408;DHT22;24866;50.248;8.252;2023-10-13T13:22:05;22.30;99.90
37408;DHT22;24866;50.248;8.252;2023-10-13T13:24:40;22.30;99.90
37408;DHT22;24866;50.248;8.252;2023-10-13T13:27:12;22.30;99.90
37408;DHT22;24866;50.248;8.252;2023-10-13T13:29:43;22.50;99.90
37408;DHT22;24866;50.248;8.252;2023-10-13T13:32:14;22.70;99.90
37408;DHT22;24866;50.248;8.252;2023-10-13T13:34:47;22.80;99.90
37408;DHT22;24866;50.248;8.252;2023-10-13T13:37:27;23.00;99.90
37408;DHT22;24866;50.248;8.252;2023-10-13T13:40:04;23.30;99.90
37408;DHT22;24866;50.248;8.252;2023-10-13T13:42:43;23.50;99.90
37408;DHT22;24866;50.248;8.252;2023-10-13T13:45:14;23.60;99.90
37408;DHT22;24866;50.248;8.252;2023-10-13T13:47:57;23.70;99.90
37408;DHT22;24866;50.248;8.252;2023-10-13T13:50:27;23.90;99.90
37408;DHT22;24866;50.248;8.252;2023-10-13T13:52:58;23.90;99.90
37408;DHT22;24866;50.248;8.252;2023-10-13T13:55:33;24.00;99.90
37408;DHT22;24866;50.248;8.252;2023-10-13T13:58:04;23.80;99.90
37408;DHT22;24866;50.248;8.252;2023-10-13T14:00:37;23.60;99.90
37408;DHT22;24866;50.248;8.252;2023-10-13T14:03:12;23.70;99.90
37408;DHT22;24866;50.248;8.252;2023-10-13T14:05:59;23.80;99.90
37408;DHT22;24866;50.248;8.252;2023-10-13T14:08:29;23.80;99.90
37408;DHT22;24866;50.248;8.252;2023-10-13T14:10:59;23.70;99.90
37408;DHT22;24866;50.248;8.252;2023-10-13T14:14:13;23.60;99.90
37408;DHT22;24866;50.248;8.252;2023-10-13T14:16:43;23.60;99.90
37408;DHT22;24866;50.248;8.252;2023-10-13T14:19:17;23.70;99.90
37408;DHT22;24866;50.248;8.252;2023-10-13T14:21:55;23.50;99.90
37408;DHT22;24866;50.248;8.252;2023-10-13T14:24:26;23.60;99.90
37408;DHT22;24866;50.248;8.252;2023-10-13T14:26:57;23.70;99.90
37408;DHT22;24866;50.248;8.252;2023-10-13T14:29:38;23.70;99.90
37408;DHT22;24866;50.248;8.252;2023-10-13T14:32:12;23.80;99.90
37408;DHT22;24866;50.248;8.252;2023-10-13T14:34:45;23.80;99.90
37408;DHT22;24866;50.248;8.252;2023-10-13T14:37:17;23.70;99.90
37408;DHT22;24866;50.248;8.252;2023-10-13T14:39:55;23.70;99.90
37408;DHT22;24866;50.248;8.252;2023-10-13T14:42:26;23.80;99.90
37408;DHT22;24866;50.248;8.252;2023-10-13T14:44:57;23.80;99.90
37408;DHT22;24866;50.248;8.252;2023-10-13T14:47:29;23.80;99.90
37408;DHT22;24866;50.248;8.252;2023-10-13T14:50:01;23.60;99.90
37408;DHT22;24866;50.248;8.252;2023-10-13T14:52:32;23.60;99.90
37408;DHT22;24866;50.248;8.252;2023-10-13T14:55:03;23.60;99.90
37408;DHT22;24866;50.248;8.252;2023-10-13T14:57:35;23.50;99.90
37408;DHT22;24866;50.248;8.252;2023-10-13T15:00:07;23.50;99.90
37408;DHT22;24866;50.248;8.252;2023-10-13T15:02:41;23.50;99.90
37408;DHT22;24866;50.248;8.252;2023-10-13T15:05:13;23.50;99.90
37408;DHT22;24866;50.248;8.252;2023-10-13T15:07:45;23.40;99.90
37408;DHT22;24866;50.248;8.252;2023-10-13T15:10:15;23.40;99.90
37408;DHT22;24866;50.248;8.252;2023-10-13T15:12:45;23.40;99.90
37408;DHT22;24866;50.248;8.252;2023-10-13T15:15:15;23.40;99.90
37408;DHT22;24866;50.248;8.252;2023-10-13T15:17:47;23.40;99.90
37408;DHT22;24866;50.248;8.252;2023-10-13T15:20:20;23.20;99.90
37408;DHT22;24866;50.248;8.252;2023-10-13T15:22:50;23.20;99.90
37408;DHT22;24866;50.248;8.252;2023-10-13T15:25:22;23.20;99.90
37408;DHT22;24866;50.248;8.252;2023-10-13T15:27:58;23.10;99.90
37408;DHT22;24866;50.248;8.252;2023-10-13T15:30:33;23.10;99.90
37408;DHT22;24866;50.248;8.252;2023-10-13T15:33:12;23.10;99.90
37408;DHT22;24866;50.248;8.252;2023-10-13T15:35:44;23.00;99.90
37408;DHT22;24866;50.248;8.252;2023-10-13T15:38:14;23.10;99.90
37408;DHT22;24866;50.248;8.252;2023-10-13T15:40:44;23.10;99.90
37408;DHT22;24866;50.248;8.252;2023-10-13T15:43:14;23.00;99.90
37408;DHT22;24866;50.248;8.252;2023-10-13T15:45:44;23.00;99.90
37408;DHT22;24866;50.248;8.252;2023-10-13T15:48:14;23.00;99.90
37408;DHT22;24866;50.248;8.252;2023-10-13T15:50:46;23.00;99.90
37408;DHT22;24866;50.248;8.252;2023-10-13T15:53:18;22.90;99.90
37408;DHT22;24866;50.248;8.252;2023-10-13T15:55:47;22.80;99.90
37408;DHT22;24866;50.248;8.252;2023-10-13T15:58:17;22.80;99.90
37408;DHT22;24866;50.248;8.252;2023-10-13T16:00:47;22.80;99.90
37408;DHT22;24866;50.248;8.252;2023-10-13T16:03:17;22.80;99.90
37408;DHT22;24866;50.248;8.252;2023-10-13T16:05:48;22.70;99.90
37408;DHT22;24866;50.248;8.252;2023-10-13T16:08:18;22.70;99.90
37408;DHT22;24866;50.248;8.252;2023-10-13T16:10:49;22.70;99.90
37408;DHT22;24866;50.248;8.252;2023-10-13T16:13:19;22.70;99.90
37408;DHT22;24866;50.248;8.252;2023-10-13T16:15:49;22.70;99.90
37408;DHT22;24866;50.248;8.252;2023-10-13T16:18:20;22.60;99.90
37408;DHT22;24866;50.248;8.252;2023-10-13T16:20:52;22.60;99.90
37408;DHT22;24866;50.248;8.252;2023-10-13T16:23:23;22.60;99.90
37408;DHT22;24866;50.248;8.252;2023-10-13T16:25:53;22.60;99.90
37408;DHT22;24866;50.248;8.252;2023-10-13T16:28:25;22.50;99.90
37408;DHT22;24866;50.248;8.252;2023-10-13T16:30:55;22.50;99.90